createdAt,value
2022-11-30T00:00:24.156Z,14.60
2022-11-30T00:03:11.181Z,13.77
2022-11-30T00:06:10.867Z,15.27
2022-11-30T00:08:58.403Z,14.77
2022-11-30T00:11:45.344Z,15.00
2022-11-30T00:14:32.288Z,16.33
2022-11-30T00:17:19.258Z,16.67
2022-11-30T00:20:07.714Z,17.30
2022-11-30T00:22:55.217Z,17.13
2022-11-30T00:25:42.154Z,17.77
2022-11-30T00:28:30.881Z,18.23
2022-11-30T00:31:18.958Z,17.77
2022-11-30T00:34:05.938Z,14.60
2022-11-30T00:36:52.881Z,15.03
2022-11-30T00:39:39.812Z,14.57
2022-11-30T00:42:26.771Z,13.93
2022-11-30T00:45:13.745Z,14.23
2022-11-30T00:48:00.677Z,17.77
2022-11-30T00:50:51.067Z,17.50
2022-11-30T00:53:38.560Z,19.60
2022-11-30T00:56:25.473Z,19.83
2022-11-30T00:59:12.573Z,19.40
2022-11-30T01:01:59.506Z,19.70
2022-11-30T01:04:46.796Z,18.33
2022-11-30T01:07:33.996Z,18.23
2022-11-30T01:10:22.844Z,17.30
2022-11-30T01:13:12.244Z,17.50
2022-11-30T01:15:59.473Z,17.80
2022-11-30T01:18:47.522Z,19.00
2022-11-30T01:21:34.471Z,19.53
2022-11-30T01:24:21.417Z,20.23
2022-11-30T01:27:08.332Z,20.20
2022-11-30T01:29:55.398Z,18.80
2022-11-30T01:32:42.360Z,20.30
2022-11-30T01:35:29.362Z,20.50
2022-11-30T01:38:16.307Z,19.33
2022-11-30T01:41:04.542Z,19.87
2022-11-30T01:43:54.222Z,19.97
2022-11-30T01:47:05.354Z,19.50
2022-11-30T01:50:01.642Z,19.03
2022-11-30T01:52:52.742Z,20.57
2022-11-30T01:55:43.163Z,19.50
2022-11-30T01:58:30.861Z,18.53
2022-11-30T02:01:17.972Z,19.57
2022-11-30T02:04:24.856Z,19.30
2022-11-30T02:07:12.650Z,18.37
2022-11-30T02:09:59.699Z,19.80
2022-11-30T02:13:08.415Z,19.70
2022-11-30T02:16:13.866Z,19.20
2022-11-30T02:19:31.828Z,19.67
2022-11-30T02:23:09.917Z,18.70
2022-11-30T02:26:27.828Z,19.23
2022-11-30T02:29:30.134Z,18.10
2022-11-30T02:32:21.664Z,20.23
2022-11-30T02:35:11.886Z,17.87
2022-11-30T02:38:00.997Z,18.03
2022-11-30T02:40:48.303Z,18.50
2022-11-30T02:43:35.868Z,17.97
2022-11-30T02:46:39.022Z,17.97
2022-11-30T02:49:45.460Z,18.33
2022-11-30T02:52:33.912Z,18.17
2022-11-30T02:55:21.046Z,17.03
2022-11-30T02:58:08.017Z,16.23
2022-11-30T03:00:54.994Z,17.63
2022-11-30T03:03:41.991Z,16.13
2022-11-30T03:06:28.924Z,16.80
2022-11-30T03:09:15.913Z,17.73
2022-11-30T03:12:02.999Z,15.87
2022-11-30T03:14:50.024Z,18.93
2022-11-30T03:17:37.098Z,16.53
2022-11-30T03:20:24.077Z,16.50
2022-11-30T03:23:11.168Z,17.63
2022-11-30T03:25:58.999Z,16.57
2022-11-30T03:28:45.975Z,17.40
2022-11-30T03:31:32.990Z,16.80
2022-11-30T03:34:20.009Z,16.17
2022-11-30T03:37:06.978Z,16.47
2022-11-30T03:39:58.136Z,17.07
2022-11-30T03:42:45.527Z,17.70
2022-11-30T03:45:32.478Z,17.43
2022-11-30T03:48:19.494Z,15.87
2022-11-30T03:51:07.258Z,16.57
2022-11-30T03:53:54.230Z,16.67
2022-11-30T03:56:41.207Z,15.57
2022-11-30T03:59:28.134Z,13.23
2022-11-30T04:02:15.071Z,11.57
2022-11-30T04:05:02.021Z,10.20
2022-11-30T04:07:48.978Z,9.60
2022-11-30T04:10:36.057Z,9.50
2022-11-30T04:13:24.337Z,8.43
2022-11-30T04:16:11.782Z,9.30
2022-11-30T04:18:58.943Z,8.83
2022-11-30T04:21:45.895Z,9.60
2022-11-30T04:24:32.819Z,8.93
2022-11-30T04:27:19.755Z,8.53
2022-11-30T04:30:07.401Z,8.03
2022-11-30T04:32:54.405Z,7.53
2022-11-30T04:35:50.069Z,8.43
2022-11-30T04:38:37.489Z,8.40
2022-11-30T04:41:24.493Z,7.33
2022-11-30T04:44:11.540Z,8.47
2022-11-30T04:46:58.794Z,9.03
2022-11-30T04:49:45.832Z,8.30
2022-11-30T04:52:33.060Z,8.43
2022-11-30T04:55:20.029Z,8.47
2022-11-30T04:58:07.310Z,8.90
2022-11-30T05:00:55.304Z,8.37
2022-11-30T05:03:42.271Z,9.10
2022-11-30T05:06:29.228Z,8.80
2022-11-30T05:09:16.136Z,9.00
2022-11-30T05:12:03.156Z,8.70
2022-11-30T05:14:50.163Z,9.37
2022-11-30T05:17:37.177Z,8.53
2022-11-30T05:20:24.120Z,9.40
2022-11-30T05:23:11.083Z,9.03
2022-11-30T05:25:58.059Z,9.13
2022-11-30T05:28:44.972Z,9.30
2022-11-30T05:31:33.136Z,9.77
2022-11-30T05:34:20.111Z,10.10
2022-11-30T05:37:07.152Z,9.63
2022-11-30T05:39:54.089Z,9.17
2022-11-30T05:42:41.066Z,8.93
2022-11-30T05:45:28.631Z,8.77
2022-11-30T05:48:15.582Z,9.50
2022-11-30T05:51:07.977Z,8.90
2022-11-30T05:53:54.969Z,9.13
2022-11-30T05:56:41.967Z,8.47
2022-11-30T05:59:28.916Z,9.07
2022-11-30T06:02:15.975Z,9.13
2022-11-30T06:05:03.050Z,9.23
2022-11-30T06:07:50.119Z,10.03
2022-11-30T06:10:37.093Z,10.13
2022-11-30T06:13:28.728Z,10.40
2022-11-30T06:16:15.989Z,10.90
2022-11-30T06:19:03.133Z,11.40
2022-11-30T06:21:50.109Z,10.93
2022-11-30T06:24:37.077Z,10.57
2022-11-30T06:27:24.111Z,11.20
2022-11-30T06:30:12.025Z,10.80
2022-11-30T06:32:59.146Z,10.67
2022-11-30T06:35:46.823Z,10.80
2022-11-30T06:38:33.769Z,10.63
2022-11-30T06:41:20.966Z,10.27
2022-11-30T06:44:09.397Z,9.63
2022-11-30T06:46:56.411Z,10.50
2022-11-30T06:49:43.372Z,9.73
2022-11-30T06:52:31.800Z,9.30
2022-11-30T06:55:18.752Z,9.40
2022-11-30T06:58:09.833Z,9.87
2022-11-30T07:00:56.823Z,10.03
2022-11-30T07:03:43.990Z,10.70
2022-11-30T07:06:30.959Z,10.30
2022-11-30T07:09:18.821Z,10.67
2022-11-30T07:12:06.304Z,10.33
2022-11-30T07:14:56.060Z,11.07
2022-11-30T07:17:43.033Z,12.10
2022-11-30T07:20:30.489Z,12.20
2022-11-30T07:23:35.992Z,14.03
2022-11-30T07:26:23.214Z,14.80
2022-11-30T07:29:10.172Z,15.20
2022-11-30T07:31:57.196Z,14.83
2022-11-30T07:34:44.372Z,15.40
2022-11-30T07:37:31.601Z,16.03
2022-11-30T07:40:18.564Z,16.47
2022-11-30T07:43:05.494Z,16.20
2022-11-30T07:45:53.335Z,17.67
2022-11-30T07:48:40.872Z,17.03
2022-11-30T07:51:27.891Z,16.93
2022-11-30T07:54:14.833Z,18.07
2022-11-30T07:57:02.591Z,18.00
2022-11-30T07:59:49.857Z,19.20
2022-11-30T08:02:37.087Z,17.93
2022-11-30T08:05:24.204Z,18.67
2022-11-30T08:08:11.171Z,18.57
2022-11-30T08:10:58.488Z,17.90
2022-11-30T08:13:46.025Z,19.40
2022-11-30T08:16:37.487Z,18.80
2022-11-30T08:19:24.552Z,18.93
2022-11-30T08:22:11.643Z,19.07
2022-11-30T08:24:58.585Z,19.40
2022-11-30T08:27:45.595Z,18.50
2022-11-30T08:30:32.968Z,18.83
2022-11-30T08:33:20.010Z,18.47
2022-11-30T08:36:15.111Z,18.87
2022-11-30T08:39:04.958Z,19.03
2022-11-30T08:41:52.971Z,18.73
2022-11-30T08:44:39.925Z,18.43
2022-11-30T08:47:29.142Z,17.53
2022-11-30T08:50:16.108Z,18.30
2022-11-30T08:53:06.417Z,18.27
2022-11-30T08:56:06.047Z,18.00
2022-11-30T08:58:54.855Z,18.07
2022-11-30T09:01:42.648Z,17.83
2022-11-30T09:04:30.105Z,17.30
2022-11-30T09:07:17.650Z,18.10
2022-11-30T09:10:05.279Z,16.03
2022-11-30T09:12:52.340Z,17.17
2022-11-30T09:15:39.336Z,16.47
2022-11-30T09:18:26.287Z,18.50
2022-11-30T09:21:15.510Z,17.43
2022-11-30T09:24:02.551Z,17.37
2022-11-30T09:26:49.489Z,17.80
2022-11-30T09:29:36.499Z,17.40
2022-11-30T09:32:23.476Z,18.57
2022-11-30T09:35:13.019Z,17.73
2022-11-30T09:38:00.186Z,18.50
2022-11-30T09:40:54.549Z,19.43
2022-11-30T09:44:01.358Z,20.07
2022-11-30T09:47:02.961Z,19.70
2022-11-30T09:49:50.009Z,18.90
2022-11-30T09:52:41.374Z,19.00
2022-11-30T09:55:39.235Z,18.27
2022-11-30T09:58:54.397Z,21.93
2022-11-30T10:01:46.121Z,20.70
2022-11-30T10:04:33.413Z,19.80
2022-11-30T10:07:48.151Z,18.77
2022-11-30T10:11:10.825Z,18.00
2022-11-30T10:14:24.529Z,16.83
2022-11-30T10:17:26.444Z,17.80
2022-11-30T10:20:24.630Z,16.23
2022-11-30T10:23:39.727Z,16.67
2022-11-30T10:26:39.959Z,16.47
2022-11-30T10:29:41.579Z,17.10
2022-11-30T10:32:40.523Z,17.73
2022-11-30T10:35:45.833Z,16.27
2022-11-30T10:38:43.016Z,17.20
2022-11-30T10:41:35.382Z,16.27
2022-11-30T10:44:34.330Z,17.97
2022-11-30T10:47:26.874Z,16.93
2022-11-30T10:50:16.337Z,17.50
2022-11-30T10:53:03.393Z,16.83
2022-11-30T10:56:07.044Z,15.33
2022-11-30T10:59:03.735Z,16.03
2022-11-30T11:01:52.990Z,16.60
2022-11-30T11:04:39.948Z,16.93
2022-11-30T11:07:26.966Z,16.07
2022-11-30T11:10:18.231Z,15.83
2022-11-30T11:13:05.449Z,15.57
2022-11-30T11:16:00.231Z,15.77
2022-11-30T11:18:55.938Z,15.73
2022-11-30T11:21:49.022Z,15.23
2022-11-30T11:24:36.120Z,14.97
2022-11-30T11:27:32.421Z,16.10
2022-11-30T11:30:30.231Z,14.80
2022-11-30T11:33:28.465Z,15.30
2022-11-30T11:36:24.371Z,14.77
2022-11-30T11:39:26.720Z,15.53
2022-11-30T11:42:22.423Z,15.30
2022-11-30T11:45:26.026Z,15.57
2022-11-30T11:48:41.830Z,15.33
2022-11-30T11:51:34.392Z,16.07
2022-11-30T11:54:36.791Z,16.53
2022-11-30T11:57:34.441Z,15.73
2022-11-30T12:00:25.263Z,15.90
2022-11-30T12:03:59.930Z,14.37
2022-11-30T12:06:49.979Z,15.07
2022-11-30T12:09:46.058Z,15.33
2022-11-30T12:12:33.300Z,14.53
2022-11-30T12:15:26.634Z,15.57
2022-11-30T12:18:24.907Z,15.07
2022-11-30T12:21:21.907Z,14.27
2022-11-30T12:24:27.718Z,15.27
2022-11-30T12:27:26.804Z,14.97
2022-11-30T12:30:31.363Z,14.33
2022-11-30T12:33:47.638Z,14.57
2022-11-30T12:37:00.410Z,14.13
2022-11-30T12:40:16.850Z,14.17
2022-11-30T12:43:09.918Z,14.23
2022-11-30T12:46:10.133Z,14.27
2022-11-30T12:49:05.763Z,14.70
2022-11-30T12:52:13.998Z,15.50
2022-11-30T12:55:00.830Z,16.23
2022-11-30T12:58:09.133Z,15.07
2022-11-30T13:01:21.548Z,15.23
2022-11-30T13:04:37.820Z,14.57
2022-11-30T13:07:34.701Z,14.57
2022-11-30T13:10:37.459Z,15.57
2022-11-30T13:13:30.210Z,16.07
2022-11-30T13:16:19.253Z,16.10
2022-11-30T13:19:43.823Z,15.03
2022-11-30T13:22:48.322Z,15.57
2022-11-30T13:29:22.820Z,15.27
2022-11-30T13:32:48.642Z,15.33
2022-11-30T13:35:28.984Z,16.20
2022-11-30T13:38:36.282Z,15.10
2022-11-30T13:41:24.317Z,14.30
2022-11-30T13:44:32.862Z,15.70
2022-11-30T13:47:35.083Z,16.30
2022-11-30T13:50:33.856Z,15.90
2022-11-30T13:53:25.097Z,15.40
2022-11-30T13:56:17.937Z,15.30
2022-11-30T13:59:23.218Z,14.83
2022-11-30T14:02:44.401Z,16.63
2022-11-30T14:05:39.788Z,16.37
2022-11-30T14:08:26.732Z,17.70
2022-11-30T14:11:32.547Z,15.70
2022-11-30T14:14:46.580Z,15.63
2022-11-30T14:17:35.475Z,17.53
2022-11-30T14:20:27.847Z,16.10
2022-11-30T14:23:20.831Z,15.27
2022-11-30T14:26:14.331Z,15.73
2022-11-30T14:29:10.416Z,15.03
2022-11-30T14:32:06.305Z,13.90
2022-11-30T14:35:02.458Z,14.13
2022-11-30T14:38:00.237Z,14.67
2022-11-30T14:40:52.421Z,14.20
2022-11-30T14:43:39.561Z,13.80
2022-11-30T14:46:27.645Z,13.73
2022-11-30T14:49:15.846Z,14.20
2022-11-30T14:52:04.518Z,14.10
2022-11-30T14:55:17.714Z,13.20
2022-11-30T14:58:21.066Z,14.43
2022-11-30T15:01:19.291Z,13.40
2022-11-30T15:04:17.543Z,13.93
2022-11-30T15:07:04.534Z,13.77
2022-11-30T15:09:57.571Z,13.20
2022-11-30T15:12:45.249Z,13.13
2022-11-30T15:15:33.436Z,13.70
2022-11-30T15:18:25.081Z,13.77
2022-11-30T15:21:24.692Z,13.43
2022-11-30T15:24:11.923Z,14.23
2022-11-30T15:27:11.371Z,13.53
2022-11-30T15:30:00.648Z,13.80
2022-11-30T15:32:52.289Z,13.17
2022-11-30T15:36:13.643Z,13.77
2022-11-30T15:38:52.724Z,13.53
2022-11-30T15:41:39.684Z,14.63
2022-11-30T15:44:41.957Z,14.33
2022-11-30T15:47:37.621Z,14.10
2022-11-30T15:50:30.532Z,14.47
2022-11-30T15:53:25.626Z,13.37
2022-11-30T15:56:24.047Z,13.67
2022-11-30T15:59:14.001Z,14.43
2022-11-30T16:02:04.609Z,13.80
2022-11-30T16:04:57.659Z,13.50
2022-11-30T16:07:54.107Z,13.57
2022-11-30T16:10:43.612Z,13.13
2022-11-30T16:13:31.448Z,13.80
2022-11-30T16:16:24.425Z,13.27
2022-11-30T16:19:11.641Z,13.43
2022-11-30T16:21:58.552Z,12.60
2022-11-30T16:24:45.478Z,12.27
2022-11-30T16:27:32.401Z,13.40
2022-11-30T16:30:22.450Z,12.77
2022-11-30T16:33:18.758Z,12.93
2022-11-30T16:36:16.793Z,12.90
2022-11-30T16:39:03.829Z,12.00
2022-11-30T16:41:50.864Z,11.63
2022-11-30T16:44:37.918Z,12.17
2022-11-30T16:47:24.849Z,12.97
2022-11-30T16:50:13.192Z,11.37
2022-11-30T16:53:01.070Z,12.17
2022-11-30T16:55:48.014Z,11.90
2022-11-30T16:58:34.981Z,11.77
2022-11-30T17:01:36.004Z,12.53
2022-11-30T17:04:29.541Z,11.87
2022-11-30T17:07:16.469Z,12.17
2022-11-30T17:10:05.517Z,12.37
2022-11-30T17:12:52.495Z,12.03
2022-11-30T17:15:39.513Z,12.53
2022-11-30T17:18:26.521Z,12.43
2022-11-30T17:21:19.342Z,11.70
2022-11-30T17:24:06.724Z,11.33
2022-11-30T17:26:54.711Z,11.97
2022-11-30T17:29:43.123Z,10.67
2022-11-30T17:32:30.085Z,10.40
2022-11-30T17:35:18.589Z,10.20
2022-11-30T17:38:05.713Z,11.07
2022-11-30T17:40:52.793Z,10.87
2022-11-30T17:43:39.743Z,11.30
2022-11-30T17:46:26.733Z,10.90
2022-11-30T17:49:13.726Z,11.57
2022-11-30T17:52:00.652Z,10.43
2022-11-30T17:54:47.827Z,11.43
2022-11-30T17:57:37.276Z,11.03
2022-11-30T18:00:24.541Z,10.80
2022-11-30T18:03:11.454Z,10.97
2022-11-30T18:06:02.320Z,11.30
2022-11-30T18:08:49.605Z,11.07
2022-11-30T18:11:36.618Z,12.00
2022-11-30T18:14:23.630Z,11.73
2022-11-30T18:17:10.632Z,12.07
2022-11-30T18:19:57.630Z,12.13
2022-11-30T18:22:44.883Z,13.33
2022-11-30T18:25:34.821Z,11.87
2022-11-30T18:28:21.756Z,11.33
2022-11-30T18:31:08.834Z,13.07
2022-11-30T18:33:57.332Z,13.90
2022-11-30T18:36:44.280Z,12.83
2022-11-30T18:39:31.309Z,12.63
2022-11-30T18:42:18.292Z,12.90
2022-11-30T18:45:05.693Z,11.53
2022-11-30T18:47:52.622Z,11.90
2022-11-30T18:50:39.640Z,12.07
2022-11-30T18:53:26.606Z,12.83
2022-11-30T18:56:19.293Z,11.83
2022-11-30T18:59:09.914Z,11.80
2022-11-30T19:01:57.295Z,12.07
2022-11-30T19:04:44.272Z,12.63
2022-11-30T19:07:31.697Z,12.53
2022-11-30T19:10:18.675Z,12.20
2022-11-30T19:13:06.940Z,12.37
2022-11-30T19:15:53.935Z,11.93
2022-11-30T19:18:41.017Z,12.60
2022-11-30T19:21:28.537Z,12.13
2022-11-30T19:24:16.474Z,12.20
2022-11-30T19:27:03.539Z,12.20
2022-11-30T19:29:50.513Z,12.67
2022-11-30T19:32:38.089Z,12.77
2022-11-30T19:35:25.133Z,12.50
2022-11-30T19:38:12.120Z,11.87
2022-11-30T19:40:59.190Z,12.47
2022-11-30T19:43:52.497Z,12.37
2022-11-30T19:46:42.021Z,11.30
2022-11-30T19:49:29.088Z,11.80
2022-11-30T19:52:16.044Z,12.00
2022-11-30T19:55:03.242Z,11.40
2022-11-30T19:57:50.191Z,12.27
2022-11-30T20:00:37.112Z,12.10
2022-11-30T20:03:24.034Z,12.60
2022-11-30T20:06:11.900Z,12.63
2022-11-30T20:08:59.451Z,12.07
2022-11-30T20:11:46.473Z,12.50
2022-11-30T20:14:33.472Z,14.27
2022-11-30T20:17:20.425Z,14.13
2022-11-30T20:20:07.562Z,14.33
2022-11-30T20:22:54.599Z,13.43
2022-11-30T20:25:41.562Z,12.93
2022-11-30T20:28:28.544Z,12.73
2022-11-30T20:31:17.656Z,12.83
2022-11-30T20:34:05.244Z,12.80
2022-11-30T20:36:52.185Z,12.83
2022-11-30T20:39:44.125Z,13.07
2022-11-30T20:42:33.402Z,13.37
2022-11-30T20:45:20.308Z,12.57
2022-11-30T20:48:07.228Z,13.33
2022-11-30T20:51:22.108Z,13.47
2022-11-30T20:54:04.152Z,15.53
2022-11-30T20:56:51.631Z,15.20
2022-11-30T20:59:39.461Z,14.67
2022-11-30T21:02:26.536Z,14.73
2022-11-30T21:05:13.897Z,16.10
2022-11-30T21:08:00.968Z,13.40
2022-11-30T21:10:48.097Z,13.80
2022-11-30T21:13:35.303Z,13.20
2022-11-30T21:16:28.064Z,13.07
2022-11-30T21:19:16.108Z,14.30
2022-11-30T21:22:04.877Z,15.23
2022-11-30T21:24:51.923Z,15.53
2022-11-30T21:27:38.858Z,15.10
2022-11-30T21:30:25.770Z,12.97
2022-11-30T21:33:12.717Z,15.03
2022-11-30T21:35:59.648Z,15.03
2022-11-30T21:38:46.612Z,14.30
2022-11-30T21:41:38.255Z,14.13
2022-11-30T21:44:25.227Z,17.37
2022-11-30T21:47:13.649Z,16.80
2022-11-30T21:50:00.658Z,17.00
2022-11-30T21:52:47.594Z,16.80
2022-11-30T21:55:36.499Z,14.43
2022-11-30T21:58:23.539Z,16.83
2022-11-30T22:01:18.504Z,20.00
2022-11-30T22:04:07.899Z,22.77
2022-11-30T22:06:54.872Z,16.70
2022-11-30T22:09:41.813Z,15.13
2022-11-30T22:12:28.760Z,14.37
2022-11-30T22:15:15.762Z,13.70
2022-11-30T22:18:02.673Z,13.70
2022-11-30T22:20:49.648Z,13.30
2022-11-30T22:23:38.889Z,14.73
2022-11-30T22:26:29.147Z,16.37
2022-11-30T22:29:22.328Z,14.47
2022-11-30T22:32:09.617Z,14.67
2022-11-30T22:34:56.587Z,13.70
2022-11-30T22:37:43.520Z,14.50
2022-11-30T22:40:30.460Z,14.00
2022-11-30T22:43:17.389Z,14.33
2022-11-30T22:46:19.498Z,14.03
2022-11-30T22:49:08.992Z,13.20
2022-11-30T22:51:55.993Z,13.63
2022-11-30T22:54:43.250Z,14.27
2022-11-30T22:57:30.333Z,14.30
2022-11-30T23:00:17.539Z,13.00
2022-11-30T23:03:04.542Z,13.20
2022-11-30T23:05:51.580Z,12.87
2022-11-30T23:08:38.606Z,13.80
2022-11-30T23:11:26.421Z,13.43
2022-11-30T23:14:15.982Z,13.73
2022-11-30T23:17:03.002Z,13.20
2022-11-30T23:19:50.339Z,13.80
2022-11-30T23:22:37.395Z,13.40
2022-11-30T23:25:24.357Z,13.53
2022-11-30T23:28:11.360Z,12.90
2022-11-30T23:31:02.773Z,13.20
2022-11-30T23:33:50.647Z,13.93
2022-11-30T23:36:37.907Z,13.77
2022-11-30T23:39:24.897Z,13.40
2022-11-30T23:42:11.824Z,12.83
2022-11-30T23:45:01.042Z,13.00
2022-11-30T23:47:48.108Z,12.97
2022-11-30T23:50:35.032Z,12.57
2022-11-30T23:53:22.025Z,12.37
2022-11-30T23:56:15.643Z,11.97
2022-11-30T23:59:02.636Z,12.43
